createdAt,value
2019-01-21T00:00:58.890Z,96859.60
2019-01-21T00:03:42.716Z,96861.23
2019-01-21T00:06:33.769Z,96853.94
2019-01-21T00:09:17.607Z,96856.02
2019-01-21T00:12:08.582Z,96859.39
2019-01-21T00:14:52.667Z,96858.11
2019-01-21T00:17:43.647Z,96863.98
2019-01-21T00:20:27.065Z,96863.94
2019-01-21T00:23:18.409Z,96863.67
2019-01-21T00:26:02.808Z,96861.44
2019-01-21T00:28:46.222Z,96862.27
2019-01-21T00:31:29.854Z,96866.25
2019-01-21T00:34:20.889Z,96868.66
2019-01-21T00:37:04.305Z,96868.48
2019-01-21T00:39:55.630Z,96870.42
2019-01-21T00:42:39.682Z,96879.62
2019-01-21T00:45:30.725Z,96832.23
2019-01-21T00:48:14.333Z,96880.80
2019-01-21T00:51:05.391Z,96882.53
2019-01-21T00:53:48.861Z,96880.77
2019-01-21T00:56:39.934Z,96884.34
2019-01-21T00:59:23.850Z,96884.97
2019-01-21T01:02:14.914Z,96881.92
2019-01-21T01:04:58.618Z,96890.76
2019-01-21T01:07:41.990Z,96863.95
2019-01-21T01:10:32.949Z,96891.86
2019-01-21T01:13:16.762Z,96872.78
2019-01-21T01:16:07.799Z,96896.75
2019-01-21T01:18:51.758Z,96901.11
2019-01-21T01:22:02.244Z,96896.44
2019-01-21T01:24:45.800Z,96904.33
2019-01-21T01:27:36.850Z,96855.99
2019-01-21T01:30:22.010Z,96908.23
2019-01-21T01:33:12.983Z,96903.60
2019-01-21T01:35:56.565Z,96904.45
2019-01-21T01:38:47.540Z,96909.88
2019-01-21T01:41:31.330Z,96911.31
2019-01-21T01:44:22.677Z,96853.30
2019-01-21T01:47:06.900Z,96911.53
2019-01-21T01:49:57.947Z,96915.38
2019-01-21T01:52:41.590Z,96911.23
2019-01-21T01:59:02.094Z,96911.39
2019-01-21T02:01:46.329Z,96905.45
2019-01-21T02:04:29.841Z,96896.69
2019-01-21T02:07:20.806Z,96898.70
2019-01-21T02:10:04.868Z,96907.04
2019-01-21T02:15:58.233Z,96903.83
2019-01-21T02:18:56.670Z,96904.33
2019-01-21T02:21:48.023Z,96903.94
2019-01-21T02:24:34.408Z,96860.84
2019-01-21T02:30:51.514Z,96844.22
2019-01-21T02:33:46.571Z,96899.41
2019-01-21T02:37:03.886Z,96896.61
2019-01-21T02:40:12.527Z,96894.83
2019-01-21T02:43:41.933Z,96893.55
2019-01-21T02:46:39.198Z,96892.91
2019-01-21T02:49:41.853Z,96897.20
2019-01-21T02:53:11.282Z,96893.80
2019-01-21T02:56:14.720Z,96894.00
2019-01-21T02:59:44.156Z,96894.63
2019-01-21T03:02:37.783Z,96893.85
2019-01-21T03:06:12.836Z,96892.95
2019-01-21T03:09:42.247Z,96891.30
2019-01-21T03:12:48.418Z,96895.59
2019-01-21T03:15:51.902Z,96842.55
2019-01-21T03:19:21.336Z,96895.46
2019-01-21T03:22:24.478Z,96895.98
2019-01-21T03:25:27.228Z,96896.34
2019-01-21T03:28:56.623Z,96895.56
2019-01-21T03:31:59.574Z,96888.66
2019-01-21T03:35:28.967Z,96893.23
2019-01-21T03:38:31.827Z,96890.33
2019-01-21T03:42:01.501Z,96889.35
2019-01-21T03:45:05.174Z,96894.13
2019-01-21T03:48:34.551Z,96897.09
2019-01-21T03:51:37.862Z,96896.31
2019-01-21T03:54:50.983Z,96844.84
2019-01-21T03:57:40.932Z,96890.62
2019-01-21T04:00:36.989Z,96856.80
2019-01-21T04:03:40.549Z,96895.25
2019-01-21T04:06:53.217Z,96891.41
2019-01-21T04:09:56.263Z,96893.13
2019-01-21T04:13:25.702Z,96889.24
2019-01-21T04:16:29.035Z,96885.18
2019-01-21T04:23:43.179Z,96889.56
2019-01-21T04:26:46.108Z,96866.60
2019-01-21T04:30:15.520Z,96880.25
2019-01-21T04:33:24.740Z,96892.44
2019-01-21T04:36:54.159Z,96894.51
2019-01-21T04:39:57.673Z,96895.74
2019-01-21T04:43:00.296Z,96899.53
2019-01-21T04:46:19.087Z,96893.05
2019-01-21T04:49:44.268Z,96886.65
2019-01-21T04:52:59.671Z,96893.13
2019-01-21T04:56:02.930Z,96897.56
2019-01-21T04:59:32.309Z,96850.12
2019-01-21T05:02:23.480Z,96890.97
2019-01-21T05:09:29.975Z,96904.50
2019-01-21T05:12:33.315Z,96887.77
2019-01-21T05:16:02.701Z,96880.29
2019-01-21T05:18:55.029Z,96898.37
2019-01-21T05:22:24.419Z,96896.93
2019-01-21T05:25:27.159Z,96860.95
2019-01-21T05:28:56.548Z,96905.02
2019-01-21T05:32:05.367Z,96910.45
2019-01-21T05:35:45.680Z,96905.12
2019-01-21T05:38:51.260Z,96862.22
2019-01-21T05:42:11.325Z,96913.77
2019-01-21T05:45:19.670Z,96915.50
2019-01-21T05:48:07.171Z,96917.61
2019-01-21T05:55:10.721Z,96855.94
2019-01-21T05:58:13.625Z,96927.53
2019-01-21T06:01:28.497Z,96928.24
2019-01-21T06:04:25.711Z,96929.16
2019-01-21T06:07:55.141Z,96931.47
2019-01-21T06:10:47.571Z,96929.01
2019-01-21T06:13:40.738Z,96935.34
2019-01-21T06:16:54.757Z,96905.23
2019-01-21T06:19:49.982Z,96928.70
2019-01-21T06:23:19.366Z,96930.13
2019-01-21T06:26:22.466Z,96908.80
2019-01-21T06:29:51.887Z,96929.47
2019-01-21T06:32:55.220Z,96935.27
2019-01-21T06:36:24.649Z,96931.20
2019-01-21T06:39:28.013Z,96939.86
2019-01-21T06:42:58.374Z,96943.06
2019-01-21T06:46:01.661Z,96951.03
2019-01-21T06:49:18.661Z,96923.74
2019-01-21T06:52:21.617Z,96947.01
2019-01-21T06:55:51.122Z,96952.16
2019-01-21T06:58:43.716Z,96902.29
2019-01-21T07:05:45.401Z,96956.98
2019-01-21T07:08:35.068Z,96952.44
2019-01-21T07:11:51.046Z,96964.83
2019-01-21T07:14:42.169Z,96966.56
2019-01-21T07:18:11.727Z,96941.34
2019-01-21T07:21:08.216Z,96967.16
2019-01-21T07:24:00.969Z,96966.51
2019-01-21T07:27:30.371Z,96970.36
2019-01-21T07:30:33.339Z,96970.75
2019-01-21T07:34:02.751Z,96978.95
2019-01-21T07:37:05.524Z,96979.14
2019-01-21T07:40:08.606Z,96974.31
2019-01-21T07:43:38.016Z,96972.39
2019-01-21T07:46:41.683Z,96980.58
2019-01-21T07:49:32.444Z,96978.66
2019-01-21T07:53:02.085Z,96983.14
2019-01-21T07:56:04.685Z,96980.19
2019-01-21T07:59:22.804Z,96974.66
2019-01-21T08:02:10.666Z,96989.27
2019-01-21T08:05:13.918Z,96966.81
2019-01-21T08:08:01.793Z,96993.80
2019-01-21T08:11:04.992Z,96943.34
2019-01-21T08:14:18.896Z,97005.52
2019-01-21T08:17:22.236Z,97004.53
2019-01-21T08:20:25.361Z,97001.00
2019-01-21T08:23:54.750Z,97002.98
2019-01-21T08:26:42.585Z,97007.05
2019-01-21T08:30:11.971Z,96987.66
2019-01-21T08:33:21.070Z,97012.31
2019-01-21T08:40:15.722Z,97000.78
2019-01-21T08:43:08.762Z,97007.83
2019-01-21T08:46:39.129Z,96999.48
2019-01-21T08:49:45.307Z,97010.39
2019-01-21T08:53:02.560Z,97009.84
2019-01-21T08:56:06.098Z,97006.52
2019-01-21T08:59:23.273Z,97007.70
2019-01-21T09:02:51.056Z,97005.86
2019-01-21T09:06:05.414Z,97004.30
2019-01-21T09:09:34.792Z,96967.29
2019-01-21T09:12:37.809Z,96949.89
2019-01-21T09:16:07.193Z,96998.20
2019-01-21T09:19:10.175Z,97010.73
2019-01-21T09:22:33.415Z,97001.89
2019-01-21T09:25:36.345Z,97002.07
2019-01-21T09:28:49.682Z,97005.42
2019-01-21T09:31:52.632Z,97003.92
2019-01-21T09:39:10.406Z,97013.44
2019-01-21T09:42:29.022Z,97017.81
2019-01-21T09:45:58.419Z,97016.64
2019-01-21T09:48:41.773Z,97021.66
2019-01-21T09:51:24.720Z,96999.80
2019-01-21T09:54:15.931Z,97022.30
2019-01-21T09:56:59.342Z,97024.23
2019-01-21T10:00:13.023Z,97030.38
2019-01-21T10:02:56.561Z,97026.41
2019-01-21T10:05:48.599Z,97032.69
2019-01-21T10:08:38.216Z,97023.33
2019-01-21T10:11:52.880Z,97018.60
2019-01-21T10:14:49.525Z,96970.82
2019-01-21T10:18:18.915Z,97016.75
2019-01-21T10:21:21.515Z,97011.95
2019-01-21T10:24:36.455Z,97009.93
2019-01-21T10:27:45.497Z,97012.73
2019-01-21T10:34:58.781Z,96980.80
2019-01-21T10:37:50.274Z,96994.50
2019-01-21T10:41:12.920Z,96989.85
2019-01-21T10:44:08.968Z,96988.47
2019-01-21T10:47:26.769Z,96977.20
2019-01-21T10:50:30.610Z,96986.41
2019-01-21T10:53:39.722Z,96991.48
2019-01-21T10:57:02.048Z,96985.96
2019-01-21T11:00:04.578Z,96959.97
2019-01-21T11:03:22.486Z,96978.09
2019-01-21T11:06:25.539Z,96978.08
2019-01-21T11:09:34.479Z,96977.91
2019-01-21T11:13:03.862Z,96981.18
2019-01-21T11:16:06.850Z,96982.61
2019-01-21T11:19:10.756Z,96974.23
2019-01-21T11:22:40.216Z,96970.70
2019-01-21T11:25:42.709Z,96972.90
2019-01-21T11:28:36.577Z,96971.78
2019-01-21T11:32:05.958Z,96967.09
2019-01-21T11:35:00.207Z,96946.75
2019-01-21T11:38:29.593Z,96965.00
2019-01-21T11:41:20.414Z,96964.62
2019-01-21T11:44:49.804Z,96956.17
2019-01-21T11:47:43.961Z,96951.61
2019-01-21T11:51:07.842Z,96940.95
2019-01-21T11:54:10.780Z,96945.02
2019-01-21T11:57:40.185Z,96939.89
2019-01-21T12:00:31.359Z,96928.80
2019-01-21T12:03:23.675Z,96933.89
2019-01-21T12:06:20.636Z,96928.40
2019-01-21T12:09:46.066Z,96930.41
2019-01-21T12:12:35.837Z,96925.61
2019-01-21T12:16:05.252Z,96934.41
2019-01-21T12:19:07.999Z,96934.59
2019-01-21T12:22:31.218Z,96934.00
2019-01-21T12:25:19.867Z,96929.26
2019-01-21T12:28:49.246Z,96922.02
2019-01-21T12:31:51.832Z,96926.81
2019-01-21T12:34:38.372Z,96865.80
2019-01-21T12:37:52.776Z,96913.69
2019-01-21T12:40:56.306Z,96916.30
2019-01-21T12:44:26.664Z,96916.50
2019-01-21T12:47:20.220Z,96915.72
2019-01-21T12:50:29.084Z,96908.91
2019-01-21T12:53:58.459Z,96898.06
2019-01-21T12:57:01.564Z,96904.42
2019-01-21T13:00:30.945Z,96910.52
2019-01-21T13:03:36.358Z,96900.34
2019-01-21T13:06:41.722Z,96847.67
2019-01-21T13:10:11.130Z,96901.45
2019-01-21T13:13:19.894Z,96901.47
2019-01-21T13:16:23.191Z,96843.17
2019-01-21T13:19:52.835Z,96893.97
2019-01-21T13:22:42.705Z,96886.92
2019-01-21T13:25:49.029Z,96889.78
2019-01-21T13:29:05.525Z,96886.40
2019-01-21T13:32:08.728Z,96879.84
2019-01-21T13:35:17.331Z,96869.61
2019-01-21T13:38:19.313Z,96878.00
2019-01-21T13:41:25.497Z,96870.80
2019-01-21T13:44:54.871Z,96865.56
2019-01-21T13:47:47.807Z,96865.77
2019-01-21T13:51:14.099Z,96845.41
2019-01-21T13:54:16.554Z,96868.01
2019-01-21T13:57:25.833Z,96862.55
2019-01-21T14:00:55.265Z,96856.72
2019-01-21T14:04:03.973Z,96855.25
2019-01-21T14:07:06.763Z,96854.48
2019-01-21T14:10:23.007Z,96855.40
2019-01-21T14:13:26.467Z,96855.03
2019-01-21T14:16:35.922Z,96834.05
2019-01-21T14:19:52.347Z,96863.64
2019-01-21T14:22:54.810Z,96843.20
2019-01-21T14:26:24.466Z,96858.66
2019-01-21T14:29:16.914Z,96854.41
2019-01-21T14:32:46.296Z,96858.03
2019-01-21T14:35:49.174Z,96861.88
2019-01-21T14:39:18.548Z,96862.44
2019-01-21T14:42:12.370Z,96860.60
2019-01-21T14:45:41.768Z,96865.36
2019-01-21T14:48:44.611Z,96862.11
2019-01-21T14:52:13.992Z,96854.67
2019-01-21T14:55:06.397Z,96858.15
2019-01-21T14:58:36.777Z,96851.41
2019-01-21T15:01:40.187Z,96845.61
2019-01-21T15:04:48.613Z,96833.03
2019-01-21T15:07:57.257Z,96830.63
2019-01-21T15:11:26.661Z,96837.75
2019-01-21T15:14:31.166Z,96828.03
2019-01-21T15:17:39.826Z,96832.88
2019-01-21T15:21:09.322Z,96829.60
2019-01-21T15:24:12.481Z,96832.00
2019-01-21T15:27:11.362Z,96827.78
2019-01-21T15:30:02.656Z,96830.02
2019-01-21T15:33:17.442Z,96831.98
2019-01-21T15:36:11.757Z,96824.02
2019-01-21T15:39:25.854Z,96807.75
2019-01-21T15:42:34.683Z,96822.29
2019-01-21T15:46:04.147Z,96826.02
2019-01-21T15:49:06.709Z,96825.31
2019-01-21T15:52:36.099Z,96834.83
2019-01-21T15:55:43.393Z,96844.13
2019-01-21T15:59:12.778Z,96844.66
2019-01-21T16:02:02.749Z,96843.19
2019-01-21T16:05:05.915Z,96790.44
2019-01-21T16:08:22.136Z,96829.16
2019-01-21T16:11:14.278Z,96847.85
2019-01-21T16:14:03.414Z,96826.52
2019-01-21T16:17:32.799Z,96850.63
2019-01-21T16:20:20.498Z,96859.66
2019-01-21T16:23:49.993Z,96857.40
2019-01-21T16:26:52.651Z,96861.20
2019-01-21T16:29:38.554Z,96857.26
2019-01-21T16:33:07.955Z,96856.63
2019-01-21T16:36:10.750Z,96809.39
2019-01-21T16:39:40.401Z,96853.33
2019-01-21T16:42:23.878Z,96853.98
2019-01-21T16:45:14.919Z,96853.57
2019-01-21T16:47:58.981Z,96848.87
2019-01-21T16:50:50.191Z,96857.12
2019-01-21T16:53:34.134Z,96858.41
2019-01-21T16:56:25.100Z,96856.44
2019-01-21T16:59:09.138Z,96853.98
2019-01-21T17:02:00.498Z,96856.73
2019-01-21T17:04:44.607Z,96861.52
2019-01-21T17:07:35.559Z,96849.28
2019-01-21T17:10:19.135Z,96846.50
2019-01-21T17:13:10.235Z,96839.71
2019-01-21T17:15:54.179Z,96846.43
2019-01-21T17:18:45.145Z,96844.48
2019-01-21T17:21:28.672Z,96847.61
2019-01-21T17:24:19.701Z,96841.00
2019-01-21T17:27:10.735Z,96830.23
2019-01-21T17:29:54.457Z,96840.38
2019-01-21T17:32:45.496Z,96849.32
2019-01-21T17:35:28.961Z,96854.71
2019-01-21T17:38:19.981Z,96844.02
2019-01-21T17:41:03.604Z,96839.25
2019-01-21T17:43:55.518Z,96846.01
2019-01-21T17:46:39.596Z,96852.52
2019-01-21T17:49:30.572Z,96841.45
2019-01-21T17:52:02.751Z,96836.30
2019-01-21T17:54:53.786Z,96836.75
2019-01-21T17:57:37.833Z,96832.22
2019-01-21T18:00:29.332Z,96783.91
2019-01-21T18:03:13.452Z,96831.98
2019-01-21T18:05:57.199Z,96838.90
2019-01-21T18:15:12.053Z,96830.62
2019-01-21T18:17:55.541Z,96834.63
2019-01-21T18:20:39.532Z,96847.97
2019-01-21T18:23:30.564Z,96848.13
2019-01-21T18:26:13.930Z,96845.11
2019-01-21T18:29:05.233Z,96849.58
2019-01-21T18:31:49.143Z,96845.79
2019-01-21T18:34:40.181Z,96791.39
2019-01-21T18:37:24.478Z,96840.32
2019-01-21T18:40:17.508Z,96840.92
2019-01-21T18:43:02.380Z,96838.59
2019-01-21T18:45:53.515Z,96837.96
2019-01-21T18:48:37.138Z,96854.03
2019-01-21T18:51:28.569Z,96849.73
2019-01-21T18:54:12.670Z,96862.81
2019-01-21T18:57:03.676Z,96855.48
2019-01-21T18:59:46.940Z,96856.92
2019-01-21T19:02:38.006Z,96858.19
2019-01-21T19:05:22.803Z,96854.26
2019-01-21T19:08:13.954Z,96850.23
2019-01-21T19:10:57.567Z,96847.37
2019-01-21T19:13:48.705Z,96849.63
2019-01-21T19:16:32.630Z,96849.77
2019-01-21T19:19:23.760Z,96849.70
2019-01-21T19:22:14.643Z,96846.15
2019-01-21T19:25:05.951Z,96844.55
2019-01-21T19:27:49.830Z,96847.58
2019-01-21T19:30:40.873Z,96847.80
2019-01-21T19:33:24.687Z,96843.19
2019-01-21T19:36:08.592Z,96842.36
2019-01-21T19:38:59.540Z,96845.77
2019-01-21T19:41:43.448Z,96840.61
2019-01-21T19:44:34.471Z,96854.75
2019-01-21T19:47:18.045Z,96809.04
2019-01-21T19:50:10.009Z,96833.02
2019-01-21T19:52:53.560Z,96831.48
2019-01-21T19:56:04.140Z,96789.72
2019-01-21T19:58:48.064Z,96829.02
2019-01-21T20:01:31.505Z,96826.76
2019-01-21T20:04:15.131Z,96820.52
2019-01-21T20:06:58.793Z,96815.48
2019-01-21T20:09:50.217Z,96821.22
2019-01-21T20:12:34.252Z,96826.78
2019-01-21T20:15:25.275Z,96818.58
2019-01-21T20:18:08.883Z,96819.94
2019-01-21T20:20:59.931Z,96819.48
2019-01-21T20:23:43.319Z,96817.50
2019-01-21T20:26:34.527Z,96820.45
2019-01-21T20:29:18.381Z,96820.00
2019-01-21T20:32:02.370Z,96820.15
2019-01-21T20:34:53.389Z,96822.82
2019-01-21T20:37:37.120Z,96822.44
2019-01-21T20:40:47.532Z,96822.16
2019-01-21T20:43:31.344Z,96823.56
2019-01-21T20:46:22.373Z,96819.20
2019-01-21T20:52:14.264Z,96818.36
2019-01-21T20:55:14.975Z,96816.84
2019-01-21T20:57:58.349Z,96809.49
2019-01-21T21:00:50.342Z,96818.51
2019-01-21T21:03:34.295Z,96825.92
2019-01-21T21:09:28.065Z,96834.27
2019-01-21T21:12:25.677Z,96834.07
2019-01-21T21:15:14.942Z,96834.63
2019-01-21T21:18:06.583Z,96830.30
2019-01-21T21:20:49.884Z,96825.10
2019-01-21T21:23:40.860Z,96823.49
2019-01-21T21:26:24.838Z,96818.41
2019-01-21T21:29:15.877Z,96814.56
2019-01-21T21:31:59.173Z,96811.47
2019-01-21T21:34:50.132Z,96750.81
2019-01-21T21:37:34.274Z,96810.78
2019-01-21T21:40:25.475Z,96803.84
2019-01-21T21:43:09.585Z,96752.53
2019-01-21T21:46:00.719Z,96796.19
2019-01-21T21:48:44.524Z,96795.84
2019-01-21T21:51:35.621Z,96799.42
2019-01-21T21:54:17.985Z,96806.25
2019-01-21T21:57:09.014Z,96803.06
2019-01-21T21:59:52.641Z,96807.39
2019-01-21T22:02:43.813Z,96811.32
2019-01-21T22:05:27.436Z,96796.45
2019-01-21T22:08:18.474Z,96792.91
2019-01-21T22:11:02.128Z,96788.59
2019-01-21T22:13:46.136Z,96786.65
2019-01-21T22:16:38.511Z,96785.72
2019-01-21T22:19:22.373Z,96796.42
2019-01-21T22:22:13.598Z,96797.39
2019-01-21T22:24:57.266Z,96755.45
2019-01-21T22:27:48.370Z,96791.87
2019-01-21T22:30:32.461Z,96787.98
2019-01-21T22:33:23.499Z,96787.91
2019-01-21T22:36:07.509Z,96784.61
2019-01-21T22:38:51.361Z,96783.09
2019-01-21T22:41:42.712Z,96776.58
2019-01-21T22:44:26.565Z,96739.24
2019-01-21T22:47:17.528Z,96771.33
2019-01-21T22:50:01.411Z,96766.12
2019-01-21T22:52:52.737Z,96771.78
2019-01-21T22:55:36.747Z,96730.78
2019-01-21T22:58:28.970Z,96764.23
2019-01-21T23:01:18.624Z,96761.73
2019-01-21T23:04:13.588Z,96751.64
2019-01-21T23:06:57.375Z,96743.16
2019-01-21T23:09:41.631Z,96736.34
2019-01-21T23:12:33.623Z,96736.66
2019-01-21T23:15:17.153Z,96735.16
2019-01-21T23:18:08.523Z,96723.09
2019-01-21T23:20:52.683Z,96732.58
2019-01-21T23:23:44.073Z,96725.28
2019-01-21T23:26:29.566Z,96712.58
2019-01-21T23:29:20.540Z,96729.77
2019-01-21T23:32:04.540Z,96671.50
2019-01-21T23:34:55.877Z,96718.18
2019-01-21T23:37:39.722Z,96701.01
2019-01-21T23:40:31.038Z,96722.23
2019-01-21T23:43:14.914Z,96726.59
2019-01-21T23:46:06.247Z,96712.54
2019-01-21T23:48:50.023Z,96721.69
2019-01-21T23:51:41.090Z,96722.70
2019-01-21T23:54:24.718Z,96711.36
2019-01-21T23:57:15.673Z,96660.83
2019-01-21T23:59:59.366Z,96679.80
